Uniontown, Arkansas
Current Conditions -  °F | °C
As of 3:53 AM on Sunday 25 Jan 2015 (Local Time) from KFSM Reporting Station
Light Rain Light Rain  
Wind Chill: 39°   Ceiling: 8500
Heat Index: 39°   Visibility: 10mi
Dew Point: 35°   Wind: 0mph
Humidity: 86%   Direction: NA
Pressure: 29.79"   Gusts: NA
Location:  35.58°N, 94.44°W
Report Text: KFSM 250953Z AUTO 00000KT 10SM -RA FEW065 BKN085 04/02 A2979 RMK AO2 RAB35 SLP088 P0000 T00390017
Loading
Personal Weather Stations






























Interactive Weather Map New forecast layout! Learn more

10-Day Weather Forecast

Advertisements
Track Severe Weather on mobile